createdAt,value
2019-04-28T00:01:15.480Z,73.90
2019-04-28T00:03:44.513Z,74.11
2019-04-28T00:06:13.409Z,74.16
2019-04-28T00:08:42.950Z,74.00
2019-04-28T00:11:11.901Z,74.12
2019-04-28T00:13:41.751Z,74.32
2019-04-28T00:16:11.555Z,74.12
2019-04-28T00:18:41.695Z,74.37
2019-04-28T00:21:29.217Z,74.15
2019-04-28T00:24:16.253Z,74.38
2019-04-28T00:26:51.548Z,74.30
2019-04-28T00:29:21.081Z,74.18
2019-04-28T00:31:51.249Z,74.30
2019-04-28T00:34:21.252Z,74.19
2019-04-28T00:36:55.743Z,73.99
2019-04-28T00:39:24.732Z,73.65
2019-04-28T00:41:53.694Z,73.48
2019-04-28T00:44:23.736Z,73.17
2019-04-28T00:46:52.811Z,73.24
2019-04-28T00:49:41.930Z,73.24
2019-04-28T00:52:11.273Z,73.15
2019-04-28T00:54:42.079Z,73.07
2019-04-28T00:57:11.353Z,73.24
2019-04-28T00:59:52.208Z,73.33
2019-04-28T01:02:34.090Z,73.36
2019-04-28T01:05:03.371Z,73.38
2019-04-28T01:07:33.033Z,73.67
2019-04-28T01:10:02.323Z,73.62
2019-04-28T01:12:31.339Z,73.63
2019-04-28T01:15:04.569Z,73.95
2019-04-28T01:17:49.701Z,74.15
2019-04-28T01:20:19.908Z,74.29
2019-04-28T01:22:49.685Z,74.41
2019-04-28T01:25:20.328Z,74.59
2019-04-28T01:28:00.104Z,74.90
2019-04-28T01:30:49.947Z,75.04
2019-04-28T01:33:29.470Z,75.01
2019-04-28T01:36:00.347Z,74.61
2019-04-28T01:38:30.211Z,74.95
2019-04-28T01:40:59.967Z,75.75
2019-04-28T01:43:31.307Z,75.77
2019-04-28T01:46:00.266Z,76.39
2019-04-28T01:48:29.645Z,75.61
2019-04-28T01:50:59.904Z,76.17
2019-04-28T01:53:30.656Z,76.71
2019-04-28T01:55:59.622Z,76.94
2019-04-28T01:58:29.679Z,77.06
2019-04-28T02:00:59.554Z,77.16
2019-04-28T02:03:30.560Z,77.56
2019-04-28T02:06:00.141Z,77.66
2019-04-28T02:08:30.253Z,78.20
2019-04-28T02:11:00.158Z,78.42
2019-04-28T02:13:29.843Z,78.50
2019-04-28T02:16:00.168Z,78.60
2019-04-28T02:18:29.924Z,78.79
2019-04-28T02:21:06.356Z,78.77
2019-04-28T02:23:35.999Z,78.98
2019-04-28T02:26:04.901Z,79.60
2019-04-28T02:28:33.893Z,78.75
2019-04-28T02:31:02.887Z,79.44
2019-04-28T02:33:31.801Z,79.83
2019-04-28T02:36:01.500Z,79.80
2019-04-28T02:38:33.957Z,79.23
2019-04-28T02:41:01.166Z,80.13
2019-04-28T02:43:30.821Z,80.13
2019-04-28T02:46:00.768Z,80.49
2019-04-28T02:48:31.065Z,80.19
2019-04-28T02:51:13.130Z,80.24
2019-04-28T02:53:46.211Z,80.31
2019-04-28T02:56:15.008Z,79.59
2019-04-28T02:58:43.865Z,79.56
2019-04-28T03:01:22.734Z,79.53
2019-04-28T03:03:50.749Z,79.47
2019-04-28T03:06:20.674Z,79.47
2019-04-28T03:08:50.672Z,79.12
2019-04-28T03:11:20.460Z,79.04
2019-04-28T03:13:51.105Z,79.12
2019-04-28T03:16:22.867Z,78.84
2019-04-28T03:18:51.525Z,79.05
2019-04-28T03:21:21.495Z,78.70
2019-04-28T03:23:51.686Z,79.50
2019-04-28T03:26:30.984Z,80.00
2019-04-28T03:29:06.282Z,80.00
2019-04-28T03:32:16.516Z,80.75
2019-04-28T03:34:23.848Z,81.22
2019-04-28T03:36:52.893Z,81.55
2019-04-28T03:39:21.946Z,81.25
2019-04-28T03:41:50.849Z,82.05
2019-04-28T03:44:20.871Z,81.95
2019-04-28T03:46:53.006Z,82.37
2019-04-28T03:49:32.322Z,83.03
2019-04-28T03:52:03.425Z,83.21
2019-04-28T03:54:32.312Z,83.58
2019-04-28T03:57:01.492Z,83.56
2019-04-28T03:59:31.121Z,83.25
2019-04-28T04:02:03.162Z,83.15
2019-04-28T04:04:32.211Z,84.02
2019-04-28T04:07:01.620Z,83.60
2019-04-28T04:10:01.785Z,82.97
2019-04-28T04:12:50.953Z,82.40
2019-04-28T04:15:49.235Z,82.17
2019-04-28T04:18:21.213Z,82.01
2019-04-28T04:20:51.256Z,82.14
2019-04-28T04:23:22.707Z,82.27
2019-04-28T04:25:51.309Z,82.52
2019-04-28T04:28:20.784Z,82.78
2019-04-28T04:30:50.842Z,82.36
2019-04-28T04:33:20.797Z,82.24
2019-04-28T04:35:51.747Z,82.12
2019-04-28T04:38:21.809Z,82.04
2019-04-28T04:40:51.432Z,82.17
2019-04-28T04:43:23.201Z,81.54
2019-04-28T04:45:54.744Z,81.59
2019-04-28T04:48:23.704Z,81.94
2019-04-28T04:50:52.760Z,81.42
2019-04-28T04:53:21.566Z,81.67
2019-04-28T04:55:52.698Z,81.42
2019-04-28T04:58:21.485Z,80.48
2019-04-28T05:01:05.201Z,80.14
2019-04-28T05:03:36.083Z,79.16
2019-04-28T05:06:24.061Z,79.42
2019-04-28T05:08:52.944Z,79.00
2019-04-28T05:11:22.012Z,78.28
2019-04-28T05:13:50.841Z,78.81
2019-04-28T05:16:19.835Z,77.94
2019-04-28T05:18:49.895Z,77.72
2019-04-28T05:21:19.227Z,77.32
2019-04-28T05:24:09.230Z,76.43
2019-04-28T05:26:40.912Z,76.96
2019-04-28T05:29:10.024Z,76.67
2019-04-28T05:31:40.147Z,76.43
2019-04-28T05:34:11.496Z,76.39
2019-04-28T05:36:44.409Z,76.45
2019-04-28T05:39:10.794Z,76.63
2019-04-28T05:41:40.063Z,75.98
2019-04-28T05:44:10.042Z,76.33
2019-04-28T05:46:40.274Z,76.72
2019-04-28T05:49:29.717Z,76.35
2019-04-28T05:52:03.159Z,76.28
2019-04-28T05:54:43.069Z,76.26
2019-04-28T05:57:20.777Z,76.42
2019-04-28T05:59:55.016Z,76.58
2019-04-28T06:02:28.215Z,76.52
2019-04-28T06:04:57.077Z,75.59
2019-04-28T06:07:37.701Z,74.48
2019-04-28T06:10:06.969Z,74.62
2019-04-28T06:12:35.941Z,74.36
2019-04-28T06:15:05.818Z,73.87
2019-04-28T06:17:34.669Z,74.00
2019-04-28T06:20:03.782Z,73.72
2019-04-28T06:22:32.764Z,72.30
2019-04-28T06:25:01.560Z,70.59
2019-04-28T06:27:32.685Z,70.26
2019-04-28T06:30:01.114Z,70.59
2019-04-28T06:32:30.020Z,71.19
2019-04-28T06:34:58.904Z,70.82
2019-04-28T06:37:27.986Z,70.53
2019-04-28T06:39:56.746Z,70.97
2019-04-28T06:42:25.798Z,71.58
2019-04-28T06:44:54.747Z,71.29
2019-04-28T06:47:23.709Z,71.21
2019-04-28T06:49:52.500Z,71.51
2019-04-28T06:52:21.426Z,71.85
2019-04-28T06:54:50.299Z,71.37
2019-04-28T06:57:19.258Z,71.41
2019-04-28T06:59:48.143Z,71.41
2019-04-28T07:02:17.029Z,71.61
2019-04-28T07:04:45.841Z,71.45
2019-04-28T07:07:14.620Z,71.19
2019-04-28T07:09:43.446Z,70.80
2019-04-28T07:12:12.388Z,70.53
2019-04-28T07:14:41.215Z,70.79
2019-04-28T07:17:10.017Z,70.46
2019-04-28T07:19:38.962Z,70.11
2019-04-28T07:22:27.980Z,69.72
2019-04-28T07:24:56.788Z,69.02
2019-04-28T07:27:25.676Z,69.38
2019-04-28T07:29:54.650Z,68.20
2019-04-28T07:32:23.632Z,68.86
2019-04-28T07:34:52.548Z,68.01
2019-04-28T07:37:21.567Z,67.58
2019-04-28T07:39:50.467Z,67.18
2019-04-28T07:42:19.234Z,66.04
2019-04-28T07:44:48.182Z,64.11
2019-04-28T07:47:17.241Z,63.18
2019-04-28T07:49:46.307Z,60.21
2019-04-28T07:52:39.385Z,60.03
2019-04-28T07:55:08.510Z,60.12
2019-04-28T07:57:37.408Z,59.77
2019-04-28T08:00:06.820Z,59.11
2019-04-28T08:02:35.594Z,59.11
2019-04-28T08:05:04.739Z,59.13
2019-04-28T08:07:33.750Z,59.53
2019-04-28T08:10:02.735Z,58.99
2019-04-28T08:12:31.653Z,58.87
2019-04-28T08:15:00.697Z,57.72
2019-04-28T08:17:29.723Z,57.91
2019-04-28T08:19:58.680Z,57.67
2019-04-28T08:22:27.492Z,57.23
2019-04-28T08:24:56.414Z,57.42
2019-04-28T08:27:25.358Z,58.34
2019-04-28T08:29:58.575Z,57.44
2019-04-28T08:32:34.070Z,58.27
2019-04-28T08:35:03.047Z,57.50
2019-04-28T08:37:31.998Z,58.77
2019-04-28T08:40:00.949Z,58.79
2019-04-28T08:42:29.910Z,58.35
2019-04-28T08:44:58.841Z,57.99
2019-04-28T08:47:27.661Z,56.83
2019-04-28T08:49:56.557Z,57.05
2019-04-28T08:52:25.586Z,58.13
2019-04-28T08:54:54.605Z,57.76
2019-04-28T08:57:23.537Z,56.09
2019-04-28T08:59:52.476Z,55.78
2019-04-28T09:02:21.714Z,55.55
2019-04-28T09:04:50.797Z,55.74
2019-04-28T09:07:19.767Z,55.86
2019-04-28T09:09:48.734Z,55.23
2019-04-28T09:12:17.662Z,53.32
2019-04-28T09:14:46.861Z,53.14
2019-04-28T09:17:16.369Z,51.42
2019-04-28T09:19:45.452Z,52.49
2019-04-28T09:22:14.547Z,52.20
2019-04-28T09:24:43.547Z,51.23
2019-04-28T09:27:12.535Z,51.93
2019-04-28T09:29:41.531Z,52.94
2019-04-28T09:32:10.537Z,52.80
2019-04-28T09:34:39.614Z,53.81
2019-04-28T09:37:08.564Z,53.75
2019-04-28T09:39:48.073Z,54.32
2019-04-28T09:42:35.081Z,55.50
2019-04-28T09:45:06.906Z,56.39
2019-04-28T09:47:35.991Z,54.90
2019-04-28T09:50:05.350Z,54.85
2019-04-28T09:52:35.368Z,54.60
2019-04-28T09:55:04.967Z,54.33
2019-04-28T09:57:34.120Z,54.58
2019-04-28T10:00:03.715Z,53.84
2019-04-28T10:02:32.777Z,54.41
2019-04-28T10:05:01.763Z,53.93
2019-04-28T10:07:32.235Z,53.12
2019-04-28T10:10:01.245Z,52.14
2019-04-28T10:12:30.227Z,52.91
2019-04-28T10:14:59.221Z,54.79
2019-04-28T10:17:28.230Z,54.59
2019-04-28T10:19:57.247Z,54.68
2019-04-28T10:22:26.133Z,53.94
2019-04-28T10:24:55.173Z,53.60
2019-04-28T10:27:24.152Z,52.63
2019-04-28T10:29:52.982Z,51.63
2019-04-28T10:32:21.989Z,51.39
2019-04-28T10:34:55.176Z,51.78
2019-04-28T10:37:23.112Z,49.92
2019-04-28T10:40:01.779Z,50.70
2019-04-28T10:42:30.956Z,50.42
2019-04-28T10:45:00.553Z,50.31
2019-04-28T10:47:29.835Z,49.96
2019-04-28T10:49:58.960Z,50.47
2019-04-28T10:52:28.450Z,48.94
2019-04-28T10:54:57.392Z,48.07
2019-04-28T10:57:26.355Z,47.78
2019-04-28T10:59:55.209Z,48.39
2019-04-28T11:02:24.120Z,47.03
2019-04-28T11:05:08.559Z,46.96
2019-04-28T11:07:36.322Z,45.93
2019-04-28T11:10:20.192Z,47.86
2019-04-28T11:12:49.229Z,49.36
2019-04-28T11:15:26.269Z,49.77
2019-04-28T11:17:55.254Z,48.26
2019-04-28T11:20:25.393Z,46.81
2019-04-28T11:22:54.354Z,46.81
2019-04-28T11:25:25.093Z,46.40
2019-04-28T11:27:55.485Z,46.78
2019-04-28T11:30:24.723Z,45.14
2019-04-28T11:33:11.577Z,45.96
2019-04-28T11:35:40.822Z,48.10
2019-04-28T11:38:10.100Z,50.50
2019-04-28T11:40:39.125Z,50.79
2019-04-28T11:43:08.121Z,50.86
2019-04-28T11:45:37.120Z,49.54
2019-04-28T11:48:06.294Z,48.58
2019-04-28T11:50:35.405Z,46.47
2019-04-28T11:53:04.570Z,45.31
2019-04-28T11:55:33.847Z,43.36
2019-04-28T11:58:02.913Z,42.29
2019-04-28T12:00:34.077Z,41.50
2019-04-28T12:03:03.278Z,42.13
2019-04-28T12:05:44.245Z,41.12
2019-04-28T12:08:13.473Z,40.41
2019-04-28T12:10:47.765Z,39.70
2019-04-28T12:13:38.721Z,39.86
2019-04-28T12:16:17.384Z,39.65
2019-04-28T12:19:02.177Z,39.58
2019-04-28T12:21:31.229Z,38.12
2019-04-28T12:24:00.199Z,37.06
2019-04-28T12:26:29.165Z,37.41
2019-04-28T12:29:00.746Z,36.29
2019-04-28T12:31:28.508Z,37.30
2019-04-28T12:33:57.605Z,41.75
2019-04-28T12:36:26.707Z,40.62
2019-04-28T12:38:55.696Z,40.98
2019-04-28T12:41:24.619Z,40.09
2019-04-28T12:43:53.450Z,39.83
2019-04-28T12:46:22.368Z,40.46
2019-04-28T12:48:54.782Z,41.25
2019-04-28T12:51:23.725Z,41.85
2019-04-28T12:53:56.932Z,40.75
2019-04-28T12:56:26.128Z,41.19
2019-04-28T12:58:59.628Z,42.53
2019-04-28T13:01:38.507Z,44.76
2019-04-28T13:04:32.714Z,44.88
2019-04-28T13:07:03.394Z,43.37
2019-04-28T13:09:34.154Z,43.40
2019-04-28T13:12:03.505Z,43.72
2019-04-28T13:14:33.676Z,44.39
2019-04-28T13:17:04.267Z,44.76
2019-04-28T13:19:33.342Z,46.72
2019-04-28T13:22:05.557Z,46.63
2019-04-28T13:24:34.594Z,46.35
2019-04-28T13:27:03.990Z,43.85
2019-04-28T13:29:33.620Z,42.32
2019-04-28T13:32:02.917Z,41.09
2019-04-28T13:34:35.916Z,42.10
2019-04-28T13:37:07.771Z,42.58
2019-04-28T13:39:58.170Z,44.44
2019-04-28T13:42:27.464Z,42.67
2019-04-28T13:45:08.954Z,41.49
2019-04-28T13:47:38.725Z,38.50
2019-04-28T13:50:40.285Z,38.05
2019-04-28T13:53:11.082Z,39.17
2019-04-28T13:55:54.671Z,37.86
2019-04-28T13:58:27.633Z,39.48
2019-04-28T14:01:24.700Z,39.10
2019-04-28T14:04:03.985Z,39.44
2019-04-28T14:06:35.063Z,39.24
2019-04-28T14:09:08.267Z,37.94
2019-04-28T14:11:37.657Z,37.19
2019-04-28T14:14:06.944Z,35.24
2019-04-28T14:16:36.274Z,33.42
2019-04-28T14:19:05.650Z,31.36
2019-04-28T14:21:34.643Z,35.62
2019-04-28T14:24:03.898Z,37.41
2019-04-28T14:26:33.270Z,37.38
2019-04-28T14:29:02.466Z,34.72
2019-04-28T14:31:31.272Z,33.08
2019-04-28T14:34:00.314Z,33.97
2019-04-28T14:36:41.463Z,35.02
2019-04-28T14:38:59.953Z,35.18
2019-04-28T14:41:29.103Z,35.76
2019-04-28T14:43:57.888Z,31.66
2019-04-28T14:46:26.863Z,33.67
2019-04-28T14:48:59.540Z,33.47
2019-04-28T14:51:28.771Z,35.73
2019-04-28T14:53:58.595Z,35.36
2019-04-28T14:56:29.663Z,33.83
2019-04-28T14:58:58.803Z,33.99
2019-04-28T15:01:50.193Z,34.82
2019-04-28T15:04:47.387Z,34.68
2019-04-28T15:07:35.302Z,36.02
2019-04-28T15:10:12.677Z,35.75
2019-04-28T15:12:41.627Z,34.54
2019-04-28T15:15:10.836Z,34.68
2019-04-28T15:17:39.864Z,36.18
2019-04-28T15:20:08.856Z,35.27
2019-04-28T15:22:37.711Z,34.22
2019-04-28T15:25:06.840Z,35.11
2019-04-28T15:27:35.887Z,35.52
2019-04-28T15:30:05.133Z,35.40
2019-04-28T15:32:34.096Z,34.54
2019-04-28T15:35:03.011Z,33.82
2019-04-28T15:37:31.918Z,33.20
2019-04-28T15:40:00.909Z,31.34
2019-04-28T15:42:29.807Z,31.34
2019-04-28T15:44:58.674Z,32.25
2019-04-28T15:47:27.595Z,31.10
2019-04-28T15:49:56.403Z,31.15
2019-04-28T15:52:25.246Z,32.79
2019-04-28T15:54:54.237Z,33.20
2019-04-28T15:57:23.272Z,34.34
2019-04-28T15:59:52.152Z,31.96
2019-04-28T16:02:21.067Z,32.52
2019-04-28T16:04:50.104Z,32.67
2019-04-28T16:07:25.078Z,32.73
2019-04-28T16:09:49.512Z,34.06
2019-04-28T16:12:18.300Z,34.23
2019-04-28T16:14:47.433Z,34.23
2019-04-28T16:17:44.469Z,31.47
2019-04-28T16:20:16.019Z,31.81
2019-04-28T16:22:45.012Z,33.16
2019-04-28T16:25:14.145Z,36.58
2019-04-28T16:27:43.041Z,40.22
2019-04-28T16:30:12.134Z,41.34
2019-04-28T16:32:41.186Z,41.29
2019-04-28T16:35:10.140Z,41.83
2019-04-28T16:37:39.360Z,43.43
2019-04-28T16:40:09.655Z,44.78
2019-04-28T16:42:41.557Z,45.53
2019-04-28T16:45:23.520Z,45.57
2019-04-28T16:47:52.600Z,47.15
2019-04-28T16:50:21.589Z,45.28
2019-04-28T16:52:50.900Z,46.33
2019-04-28T16:55:23.992Z,46.30
2019-04-28T16:58:11.909Z,45.48
2019-04-28T17:01:14.109Z,45.70
2019-04-28T17:03:42.944Z,44.67
2019-04-28T17:06:11.962Z,44.35
2019-04-28T17:08:40.883Z,43.14
2019-04-28T17:11:10.150Z,42.20
2019-04-28T17:13:39.187Z,42.23
2019-04-28T17:16:08.323Z,43.80
2019-04-28T17:18:37.216Z,44.25
2019-04-28T17:21:06.217Z,44.69
2019-04-28T17:23:35.106Z,45.75
2019-04-28T17:26:03.958Z,45.93
2019-04-28T17:28:32.842Z,45.46
2019-04-28T17:31:01.707Z,44.86
2019-04-28T17:33:30.838Z,45.00
2019-04-28T17:35:59.863Z,42.81
2019-04-28T17:38:28.786Z,42.97
2019-04-28T17:40:57.816Z,43.21
2019-04-28T17:43:26.877Z,44.51
2019-04-28T17:45:55.807Z,45.24
2019-04-28T17:48:30.094Z,45.49
2019-04-28T17:50:58.938Z,45.81
2019-04-28T17:53:27.943Z,46.31
2019-04-28T17:55:56.916Z,47.18
2019-04-28T17:58:25.943Z,47.37
2019-04-28T18:01:15.272Z,47.69
2019-04-28T18:03:56.510Z,47.58
2019-04-28T18:06:25.965Z,47.64
2019-04-28T18:08:55.033Z,47.53
2019-04-28T18:11:24.066Z,48.60
2019-04-28T18:13:52.957Z,48.91
2019-04-28T18:16:39.487Z,50.06
2019-04-28T18:19:10.424Z,51.71
2019-04-28T18:21:39.418Z,52.83
2019-04-28T18:24:08.237Z,54.10
2019-04-28T18:26:38.194Z,54.77
2019-04-28T18:29:08.821Z,55.68
2019-04-28T18:31:54.741Z,56.22
2019-04-28T18:34:33.662Z,57.06
2019-04-28T18:37:20.756Z,57.06
2019-04-28T18:40:22.172Z,56.83
2019-04-28T18:42:57.843Z,57.43
2019-04-28T18:45:26.937Z,58.03
2019-04-28T18:47:55.793Z,57.90
2019-04-28T18:50:24.800Z,58.36
2019-04-28T18:52:53.696Z,59.01
2019-04-28T18:55:22.641Z,58.87
2019-04-28T18:57:51.500Z,59.65
2019-04-28T19:00:22.433Z,60.36
2019-04-28T19:02:51.823Z,61.33
2019-04-28T19:05:22.449Z,62.44
2019-04-28T19:08:16.547Z,63.55
2019-04-28T19:11:26.298Z,64.21
2019-04-28T19:14:02.389Z,63.86
2019-04-28T19:16:59.386Z,64.54
2019-04-28T19:19:29.044Z,64.80
2019-04-28T19:21:57.884Z,65.05
2019-04-28T19:24:27.565Z,65.56
2019-04-28T19:26:56.424Z,65.80
2019-04-28T19:29:25.307Z,66.26
2019-04-28T19:31:54.302Z,66.93
2019-04-28T19:34:23.284Z,67.32
2019-04-28T19:36:52.300Z,67.74
2019-04-28T19:39:21.189Z,68.09
2019-04-28T19:41:50.216Z,68.49
2019-04-28T19:44:19.023Z,69.06
2019-04-28T19:46:48.016Z,69.64
2019-04-28T19:49:16.906Z,69.93
2019-04-28T19:51:46.100Z,70.72
2019-04-28T19:54:16.015Z,71.20
2019-04-28T19:56:54.801Z,71.91
2019-04-28T19:59:48.706Z,72.11
2019-04-28T20:02:17.638Z,72.72
2019-04-28T20:04:46.632Z,72.60
2019-04-28T20:07:15.618Z,73.00
2019-04-28T20:09:44.588Z,73.50
2019-04-28T20:12:13.446Z,73.74
2019-04-28T20:14:42.381Z,74.29
2019-04-28T20:17:11.356Z,74.93
2019-04-28T20:19:40.407Z,75.03
2019-04-28T20:22:09.618Z,75.28
2019-04-28T20:24:46.962Z,75.67
2019-04-28T20:27:09.207Z,76.00
2019-04-28T20:29:38.096Z,76.09
2019-04-28T20:32:07.126Z,76.26
2019-04-28T20:34:35.959Z,76.25
2019-04-28T20:37:24.028Z,76.39
2019-04-28T20:39:57.405Z,76.86
2019-04-28T20:42:40.588Z,76.91
2019-04-28T20:45:11.002Z,77.02
2019-04-28T20:47:39.934Z,77.36
2019-04-28T20:50:09.395Z,78.00
2019-04-28T20:52:38.460Z,78.45
2019-04-28T20:55:07.830Z,78.72
2019-04-28T20:57:36.988Z,79.64
2019-04-28T21:00:06.434Z,80.25
2019-04-28T21:02:35.611Z,80.82
2019-04-28T21:05:05.022Z,80.13
2019-04-28T21:07:34.507Z,79.61
2019-04-28T21:10:03.951Z,80.16
2019-04-28T21:12:32.869Z,80.33
2019-04-28T21:15:01.986Z,80.31
2019-04-28T21:17:30.966Z,80.96
2019-04-28T21:19:59.890Z,80.33
2019-04-28T21:22:28.995Z,80.42
2019-04-28T21:24:57.886Z,80.93
2019-04-28T21:27:26.774Z,81.04
2019-04-28T21:29:55.563Z,81.60
2019-04-28T21:32:24.575Z,81.89
2019-04-28T21:34:53.805Z,81.75
2019-04-28T21:37:22.705Z,81.74
2019-04-28T21:39:51.651Z,81.43
2019-04-28T21:42:22.977Z,80.49
2019-04-28T21:45:16.586Z,79.61
2019-04-28T21:47:45.564Z,80.24
2019-04-28T21:50:14.546Z,80.70
2019-04-28T21:52:43.538Z,80.48
2019-04-28T21:55:12.578Z,81.60
2019-04-28T21:57:41.475Z,81.70
2019-04-28T22:00:14.125Z,82.15
2019-04-28T22:02:43.057Z,82.26
2019-04-28T22:05:12.030Z,82.08
2019-04-28T22:07:41.053Z,82.18
2019-04-28T22:10:10.632Z,82.66
2019-04-28T22:12:39.524Z,83.27
2019-04-28T22:15:08.612Z,83.44
2019-04-28T22:17:37.732Z,83.18
2019-04-28T22:20:06.805Z,83.60
2019-04-28T22:22:35.818Z,83.01
2019-04-28T22:25:21.460Z,83.19
2019-04-28T22:27:50.446Z,83.12
2019-04-28T22:30:19.535Z,83.52
2019-04-28T22:32:48.621Z,83.92
2019-04-28T22:35:17.851Z,83.95
2019-04-28T22:37:46.779Z,84.54
2019-04-28T22:40:15.801Z,84.83
2019-04-28T22:42:44.799Z,84.69
2019-04-28T22:45:14.503Z,85.09
2019-04-28T22:47:43.797Z,85.01
2019-04-28T22:50:35.775Z,85.05
2019-04-28T22:53:04.837Z,85.17
2019-04-28T22:55:37.030Z,84.67
2019-04-28T22:58:19.309Z,84.86
2019-04-28T23:00:55.409Z,85.17
2019-04-28T23:03:48.430Z,85.25
2019-04-28T23:06:17.403Z,86.26
2019-04-28T23:08:46.842Z,87.04
2019-04-28T23:11:15.883Z,87.28
2019-04-28T23:13:44.903Z,87.69
2019-04-28T23:16:13.957Z,87.68
2019-04-28T23:18:43.050Z,87.71
2019-04-28T23:21:29.339Z,87.27
2019-04-28T23:23:58.465Z,87.54
2019-04-28T23:26:27.395Z,87.76
2019-04-28T23:28:56.452Z,87.90
2019-04-28T23:31:25.364Z,87.61
2019-04-28T23:33:54.355Z,87.64
2019-04-28T23:36:23.253Z,87.86
2019-04-28T23:38:52.181Z,87.95
2019-04-28T23:41:31.460Z,87.88
2019-04-28T23:44:00.342Z,87.99
2019-04-28T23:46:47.287Z,87.95
2019-04-28T23:49:16.308Z,87.92
2019-04-28T23:51:52.492Z,88.09
2019-04-28T23:54:21.616Z,87.91
2019-04-28T23:56:50.626Z,88.44
2019-04-28T23:59:19.638Z,88.38
